Time;durP1;ratioP1;P1;durP2;ratioP2;P2;SDS_P1;SDS_P2;PMS_P1;PMS_P2;Temp;Humidity;BMP_temperature;BMP_pressure;BME280_temperature;BME280_humidity;BME280_pressure;Samples;Min_cycle;Max_cycle;Signal;HPM_P1;HPM_P2
2021/07/16 00:00:10;;;;;;;;;;;19.70;99.90;;;19.38;69.77;100584.53;4994125;28;20329;-64
2021/07/16 00:02:39;;;;;;;;;;;19.60;99.90;;;19.32;70.20;100585.94;4992922;28;19930;-63
2021/07/16 00:05:07;;;;;;;;;;;19.50;99.90;;;19.28;70.24;100584.25;4993368;28;19926;-64
2021/07/16 00:07:35;;;;;;;;;;;19.50;99.90;;;19.18;70.70;100576.56;4993518;28;19956;-65
2021/07/16 00:10:03;;;;;;;;;;;19.40;99.90;;;19.16;70.94;100582.41;4994029;28;19942;-65
2021/07/16 00:12:32;;;;;;;;;;;19.40;99.90;;;19.20;70.92;100577.81;4994010;28;20333;-64
2021/07/16 00:15:00;;;;;;;;;;;19.40;99.90;;;19.22;71.19;100571.97;4993256;28;19940;-63
2021/07/16 00:17:28;;;;;;;;;;;19.40;99.90;;;19.23;71.19;100566.13;4993489;28;20266;-64
2021/07/16 00:19:55;;;;;;;;;;;19.40;99.90;;;19.21;71.06;100571.16;4993493;28;19933;-64
2021/07/16 00:22:23;;;;;;;;;;;19.40;99.90;;;19.19;71.05;100581.69;4993834;28;19926;-64
2021/07/16 00:24:51;;;;;;;;;;;19.40;99.90;;;19.16;71.12;100582.41;4993116;28;20381;-64
2021/07/16 00:27:19;;;;;;;;;;;19.30;99.90;;;19.16;71.35;100578.84;4993534;28;19984;-64
2021/07/16 00:29:48;;;;;;;;;;;19.30;99.90;;;19.12;71.42;100580.72;4993424;28;20396;-64
2021/07/16 00:32:16;;;;;;;;;;;19.30;99.90;;;19.13;71.56;100576.81;4993617;28;20427;-64
2021/07/16 00:34:43;;;;;;;;;;;19.30;99.90;;;19.13;71.37;100580.38;4992682;28;19932;-64
2021/07/16 00:37:11;;;;;;;;;;;19.30;99.90;;;19.12;71.32;100584.25;4993213;28;20356;-64
2021/07/16 00:39:39;;;;;;;;;;;19.30;99.90;;;19.09;71.27;100577.53;4993280;28;20384;-64
2021/07/16 00:42:07;;;;;;;;;;;19.30;99.90;;;19.15;71.65;100586.28;4993642;28;19926;-65
2021/07/16 00:44:36;;;;;;;;;;;19.30;99.90;;;19.22;70.94;100589.22;4992855;28;20297;-64
2021/07/16 00:47:06;;;;;;;;;;;19.30;99.90;;;19.25;70.65;100585.75;4992864;28;19926;-64
2021/07/16 00:49:33;;;;;;;;;;;19.30;99.90;;;19.29;70.65;100583.13;4992924;28;19925;-64
2021/07/16 00:52:01;;;;;;;;;;;19.30;99.90;;;19.35;70.28;100585.25;4993507;28;19926;-64
2021/07/16 00:54:30;;;;;;;;;;;19.40;99.90;;;19.40;69.82;100584.19;4993086;28;19926;-63
2021/07/16 00:56:58;;;;;;;;;;;19.40;99.90;;;19.43;69.61;100589.78;4992676;28;20296;-63
2021/07/16 00:59:26;;;;;;;;;;;19.40;99.90;;;19.40;69.71;100581.47;4992777;28;19930;-64
2021/07/16 01:01:56;;;;;;;;;;;19.40;99.90;;;19.38;69.37;100581.78;4993273;28;20376;-64
2021/07/16 01:04:26;;;;;;;;;;;19.40;99.90;;;19.22;69.92;100581.00;4992878;28;20336;-63
2021/07/16 01:06:54;;;;;;;;;;;19.30;99.90;;;19.12;70.81;100576.03;4992548;28;20369;-63
2021/07/16 01:09:22;;;;;;;;;;;19.20;99.90;;;18.98;70.94;100581.94;4992652;28;20016;-64
2021/07/16 01:11:50;;;;;;;;;;;19.10;99.90;;;18.89;71.28;100577.78;4993312;28;19992;-64
2021/07/16 01:14:18;;;;;;;;;;;19.00;99.90;;;18.89;71.36;100581.31;4994727;28;19926;-64
2021/07/16 01:16:45;;;;;;;;;;;18.90;99.90;;;18.91;71.45;100578.22;4996590;28;19981;-64
2021/07/16 01:19:17;;;;;;;;;;;18.90;99.90;;;18.87;71.47;100572.66;4996631;28;19980;-64
2021/07/16 01:21:48;;;;;;;;;;;19.00;99.90;;;18.87;71.81;100569.13;4997292;28;19934;-63
2021/07/16 01:24:18;;;;;;;;;;;19.00;99.90;;;18.84;72.20;100572.56;4997136;28;20355;-63
2021/07/16 01:26:45;;;;;;;;;;;19.00;99.90;;;18.84;72.18;100567.88;4996424;28;19996;-64
2021/07/16 01:29:13;;;;;;;;;;;19.00;99.90;;;18.81;72.47;100563.09;4996403;28;19930;-64
2021/07/16 01:31:42;;;;;;;;;;;19.00;99.90;;;18.97;72.16;100555.69;4997098;28;20379;-64
2021/07/16 01:34:10;;;;;;;;;;;19.10;99.90;;;19.09;71.36;100550.13;4997019;28;19941;-63
2021/07/16 01:36:38;;;;;;;;;;;19.10;99.90;;;19.03;71.24;100543.31;4996002;28;19956;-64
2021/07/16 01:39:06;;;;;;;;;;;19.20;99.90;;;19.00;71.39;100543.22;4996102;28;20520;-64
2021/07/16 01:41:35;;;;;;;;;;;19.10;99.90;;;19.02;71.32;100538.19;4996788;28;20387;-64
2021/07/16 01:44:04;;;;;;;;;;;19.10;99.90;;;19.07;71.26;100540.66;4996750;28;19933;-64
2021/07/16 01:46:31;;;;;;;;;;;19.20;99.90;;;19.22;70.77;100531.66;4995976;28;19932;-64
2021/07/16 01:49:00;;;;;;;;;;;19.30;99.90;;;19.35;69.80;100526.88;4996246;28;20403;-64
2021/07/16 01:51:27;;;;;;;;;;;19.40;99.90;;;19.33;69.97;100538.19;4996405;28;19936;-64
2021/07/16 01:53:55;;;;;;;;;;;19.40;99.90;;;19.34;69.73;100530.75;4996662;28;19933;-64
2021/07/16 01:56:24;;;;;;;;;;;19.40;99.90;;;19.33;69.72;100524.47;4995641;28;19980;-64
2021/07/16 01:58:54;;;;;;;;;;;19.40;99.90;;;19.41;69.10;100523.53;4996026;28;20503;-63
2021/07/16 02:01:24;;;;;;;;;;;19.40;99.90;;;19.35;69.76;100529.59;4996272;28;20020;-65
2021/07/16 02:03:52;;;;;;;;;;;19.40;99.90;;;19.39;69.81;100523.09;4996415;28;19926;-63
2021/07/16 02:06:20;;;;;;;;;;;19.40;99.90;;;19.53;69.20;100525.38;4995263;28;20385;-64
2021/07/16 02:08:48;;;;;;;;;;;19.50;99.90;;;19.62;69.19;100513.06;4995733;28;20266;-65
2021/07/16 02:11:16;;;;;;;;;;;19.60;99.90;;;19.69;68.53;100509.69;4996195;28;19925;-65
2021/07/16 02:13:44;;;;;;;;;;;19.70;99.90;;;19.76;68.31;100498.84;4996249;28;20381;-64
2021/07/16 02:16:13;;;;;;;;;;;19.80;99.90;;;19.83;68.04;100501.75;4995363;28;19930;-64
2021/07/16 02:18:41;;;;;;;;;;;19.80;99.90;;;19.92;67.54;100507.03;4995629;28;20365;-64
2021/07/16 02:21:09;;;;;;;;;;;19.90;99.90;;;19.96;67.07;100502.41;4996025;28;19952;-63
2021/07/16 02:23:36;;;;;;;;;;;20.00;99.90;;;20.01;67.05;100496.63;4996021;28;19980;-64
2021/07/16 02:26:04;;;;;;;;;;;20.00;99.90;;;20.07;67.05;100500.69;4994032;28;19930;-64
2021/07/16 02:28:33;;;;;;;;;;;20.10;99.90;;;20.02;66.79;100500.97;4995753;28;20373;-64
2021/07/16 02:31:01;;;;;;;;;;;20.10;99.90;;;20.03;66.90;100494.34;4995909;28;20348;-64
2021/07/16 02:33:30;;;;;;;;;;;20.10;99.90;;;19.94;66.80;100502.00;4995768;28;19925;-65
2021/07/16 02:35:59;;;;;;;;;;;20.00;99.90;;;19.78;67.64;100495.75;4994894;28;20366;-64
2021/07/16 02:38:26;;;;;;;;;;;19.90;99.90;;;19.72;68.00;100503.47;4995505;28;19925;-64
2021/07/16 02:40:54;;;;;;;;;;;19.80;99.90;;;19.61;68.31;100497.75;4995460;28;19930;-65
2021/07/16 02:43:22;;;;;;;;;;;19.80;99.90;;;19.63;68.27;100498.19;4995594;28;19926;-64
2021/07/16 02:45:50;;;;;;;;;;;19.80;99.90;;;19.72;68.05;100487.03;4994736;28;19985;-63
2021/07/16 02:48:19;;;;;;;;;;;19.80;99.90;;;19.74;68.00;100486.66;4995104;28;19926;-65
2021/07/16 02:50:48;;;;;;;;;;;19.80;99.90;;;19.78;68.01;100493.00;4995269;28;20186;-64
2021/07/16 02:53:20;;;;;;;;;;;19.80;99.90;;;19.86;67.84;100492.00;4995506;28;19926;-64
2021/07/16 02:55:48;;;;;;;;;;;19.90;99.90;;;19.87;68.10;100485.38;4994382;28;19933;-64
2021/07/16 02:58:18;;;;;;;;;;;19.90;99.90;;;19.84;68.31;100483.34;4994791;28;19932;-64
2021/07/16 03:00:46;;;;;;;;;;;19.90;99.90;;;19.79;68.39;100475.41;4994971;28;19964;-64
2021/07/16 03:03:14;;;;;;;;;;;19.90;99.90;;;19.73;68.14;100477.63;4995398;28;19926;-64
2021/07/16 03:05:42;;;;;;;;;;;19.90;99.90;;;19.61;68.73;100475.78;4994367;28;19980;-64
2021/07/16 03:08:13;;;;;;;;;;;19.80;99.90;;;19.56;69.43;100481.56;4994618;28;20183;-63
2021/07/16 03:10:42;;;;;;;;;;;19.80;99.90;;;19.57;69.35;100480.44;4994968;28;20277;-64
2021/07/16 03:13:11;;;;;;;;;;;19.70;99.90;;;19.67;69.61;100472.78;4995217;28;19980;-64
2021/07/16 03:15:39;;;;;;;;;;;19.70;99.90;;;19.74;69.40;100467.44;4994193;28;19930;-65
2021/07/16 03:18:08;;;;;;;;;;;19.80;99.90;;;19.75;69.36;100471.78;4994389;28;19929;-63
2021/07/16 03:20:37;;;;;;;;;;;19.80;99.90;;;19.63;69.45;100469.97;4994590;28;19930;-64
2021/07/16 03:23:06;;;;;;;;;;;19.80;99.90;;;19.58;69.35;100471.03;4994843;28;19926;-64
2021/07/16 03:25:36;;;;;;;;;;;19.70;99.90;;;19.63;69.15;100472.72;4994166;28;19930;-64
2021/07/16 03:28:05;;;;;;;;;;;19.70;99.90;;;19.68;68.59;100472.41;4994099;28;19972;-65
2021/07/16 03:30:34;;;;;;;;;;;19.70;99.90;;;19.73;68.59;100474.88;4994684;28;19929;-64
2021/07/16 03:33:02;;;;;;;;;;;19.80;99.90;;;19.69;68.79;100471.28;4994724;28;20432;-64
2021/07/16 03:35:30;;;;;;;;;;;19.80;99.90;;;19.50;69.72;100471.22;4994081;28;19957;-64
2021/07/16 03:37:58;;;;;;;;;;;19.70;99.90;;;19.32;70.39;100464.53;4993598;28;19980;-64
2021/07/16 03:40:28;;;;;;;;;;;19.50;99.90;;;19.36;71.00;100473.63;4994470;28;19988;-63
2021/07/16 03:42:59;;;;;;;;;;;19.50;99.90;;;19.43;70.23;100473.81;4994553;28;19926;-64
2021/07/16 03:45:27;;;;;;;;;;;19.50;99.90;;;19.47;69.75;100470.00;4994138;28;20404;-65
2021/07/16 03:47:55;;;;;;;;;;;19.50;99.90;;;19.45;69.51;100472.31;4993751;28;19988;-64
2021/07/16 03:50:23;;;;;;;;;;;19.50;99.90;;;19.43;69.29;100471.88;4993984;28;20282;-65
2021/07/16 03:52:51;;;;;;;;;;;19.50;99.90;;;19.37;69.19;100470.50;4994386;28;19930;-64
2021/07/16 03:55:19;;;;;;;;;;;19.40;99.90;;;19.30;69.56;100478.56;4993672;28;19929;-64
2021/07/16 03:57:49;;;;;;;;;;;19.40;99.90;;;19.22;69.72;100482.31;4993631;28;19929;-64
2021/07/16 04:00:21;;;;;;;;;;;19.30;99.90;;;19.20;70.14;100481.88;4993935;28;19930;-64
2021/07/16 04:02:49;;;;;;;;;;;19.30;99.90;;;19.20;69.75;100473.66;4994352;28;19926;-64
2021/07/16 04:05:16;;;;;;;;;;;19.30;99.90;;;19.13;70.14;100462.50;4993564;28;19958;-63
2021/07/16 04:07:48;;;;;;;;;;;19.30;99.90;;;19.15;69.89;100471.16;4993358;28;19930;-64
2021/07/16 04:10:18;;;;;;;;;;;19.30;99.90;;;19.21;69.33;100480.69;4993852;28;19980;-64
2021/07/16 04:12:51;;;;;;;;;;;19.30;99.90;;;19.22;69.00;100471.34;4994048;28;19930;-65
2021/07/16 04:15:20;;;;;;;;;;;19.30;99.90;;;19.21;69.28;100479.94;4993392;28;19926;-65
2021/07/16 04:17:48;;;;;;;;;;;19.30;99.90;;;19.19;69.23;100468.50;4993463;28;19925;-64
2021/07/16 04:20:16;;;;;;;;;;;19.20;99.90;;;19.21;69.08;100469.75;4993563;28;19926;-64
2021/07/16 04:22:45;;;;;;;;;;;19.20;99.90;;;19.25;69.25;100469.81;4993815;28;19926;-64
2021/07/16 04:25:16;;;;;;;;;;;19.30;99.90;;;19.23;69.08;100469.41;4993176;28;19926;-64
2021/07/16 04:27:44;;;;;;;;;;;19.30;99.90;;;19.19;69.41;100482.22;4993291;28;20013;-63
2021/07/16 04:30:13;;;;;;;;;;;19.30;99.90;;;19.15;69.55;100484.09;4993178;28;19926;-64
2021/07/16 04:32:43;;;;;;;;;;;19.20;99.90;;;19.08;69.57;100490.19;4993700;28;19930;-63
2021/07/16 04:35:13;;;;;;;;;;;19.10;99.90;;;19.05;69.69;100483.47;4993107;28;19926;-64
2021/07/16 04:37:41;;;;;;;;;;;19.10;99.90;;;19.00;69.24;100486.47;4993393;28;19937;-64
2021/07/16 04:40:12;;;;;;;;;;;19.10;99.90;;;18.94;69.12;100481.59;4993019;28;19980;-64
2021/07/16 04:42:40;;;;;;;;;;;19.10;99.90;;;18.86;69.33;100479.84;4993484;28;19988;-64
2021/07/16 04:45:09;;;;;;;;;;;19.00;99.90;;;18.82;69.87;100479.75;4992759;28;19929;-64
2021/07/16 04:47:37;;;;;;;;;;;19.00;99.90;;;18.77;69.48;100476.47;4992961;28;19926;-64
2021/07/16 04:50:08;;;;;;;;;;;18.90;99.90;;;18.79;68.97;100479.66;4992525;28;20281;-63
2021/07/16 04:52:38;;;;;;;;;;;18.90;99.90;;;18.83;68.77;100486.84;4993442;28;19930;-64
2021/07/16 04:55:07;;;;;;;;;;;18.90;99.90;;;18.85;68.85;100483.72;4992690;28;20423;-65
2021/07/16 04:57:35;;;;;;;;;;;18.90;99.90;;;18.72;69.02;100490.44;4992882;28;19980;-64
2021/07/16 05:00:03;;;;;;;;;;;18.80;99.90;;;18.49;69.38;100487.50;4993079;28;19926;-64
2021/07/16 05:02:31;;;;;;;;;;;18.70;99.90;;;18.30;70.45;100490.84;4993278;28;20288;-64
2021/07/16 05:04:58;;;;;;;;;;;18.50;99.90;;;18.26;70.92;100494.66;4992531;28;19980;-64
2021/07/16 05:07:28;;;;;;;;;;;18.40;99.90;;;18.11;70.75;100496.19;4992648;28;19929;-63
2021/07/16 05:09:55;;;;;;;;;;;18.30;99.90;;;17.89;71.92;100491.25;4992709;28;19930;-64
2021/07/16 05:12:23;;;;;;;;;;;18.20;99.90;;;17.73;72.50;100496.63;4993205;28;20055;-64
2021/07/16 05:14:51;;;;;;;;;;;18.00;99.90;;;17.68;73.27;100501.56;4992679;28;19996;-64
2021/07/16 05:17:18;;;;;;;;;;;17.90;99.90;;;17.61;73.42;100507.59;4992813;28;20451;-65
2021/07/16 05:19:46;;;;;;;;;;;17.80;99.90;;;17.64;73.74;100501.44;4992466;28;20365;-65
2021/07/16 05:22:14;;;;;;;;;;;17.80;99.90;;;17.64;73.54;100511.56;4993284;28;19926;-63
2021/07/16 05:24:43;;;;;;;;;;;17.80;99.90;;;17.61;73.42;100504.88;4992582;28;19925;-65
2021/07/16 05:27:10;;;;;;;;;;;17.80;99.90;;;17.50;73.77;100509.19;4992867;28;19980;-63
2021/07/16 05:29:38;;;;;;;;;;;17.70;99.90;;;17.55;74.13;100511.69;4992337;28;19933;-64
2021/07/16 05:32:07;;;;;;;;;;;17.70;99.90;;;17.64;73.45;100506.09;4992970;28;19926;-64
2021/07/16 05:34:34;;;;;;;;;;;17.80;99.90;;;17.62;73.75;100502.94;4992635;28;19926;-65
2021/07/16 05:37:02;;;;;;;;;;;17.80;99.90;;;17.63;74.71;100499.06;4992408;28;19933;-64
2021/07/16 05:39:30;;;;;;;;;;;17.80;99.90;;;17.60;74.63;100502.50;4992065;28;20332;-64
2021/07/16 05:42:03;;;;;;;;;;;17.80;99.90;;;17.78;74.26;100506.56;4993106;28;20364;-65
2021/07/16 05:44:32;;;;;;;;;;;17.90;99.90;;;18.25;72.77;100504.78;4992824;28;19926;-65
2021/07/16 05:47:00;;;;;;;;;;;18.20;99.90;;;18.96;70.40;100502.03;4992464;28;19930;-64
2021/07/16 05:49:28;;;;;;;;;;;18.80;99.90;;;19.60;67.91;100498.91;4992340;28;20305;-64
2021/07/16 05:51:55;;;;;;;;;;;19.50;99.90;;;20.14;65.55;100493.41;4992913;28;19930;-65
2021/07/16 05:54:23;;;;;;;;;;;20.10;99.90;;;20.73;62.75;100494.16;4992697;28;19933;-64
2021/07/16 05:56:51;;;;;;;;;;;20.80;99.90;;;21.29;60.87;100497.88;4992041;28;19925;-63
2021/07/16 05:59:20;;;;;;;;;;;;;;;21.81;58.97;100499.81;4991919;28;19977;-64
2021/07/16 06:01:48;;;;;;;;;;;22.60;99.90;;;22.55;57.08;100495.22;4996357;28;19926;-63
2021/07/16 06:04:16;;;;;;;;;;;;;;;23.24;54.60;100492.72;4996554;28;20419;-64
2021/07/16 06:06:44;;;;;;;;;;;24.00;99.90;;;23.97;52.11;100497.13;4995625;28;19926;-64
2021/07/16 06:09:11;;;;;;;;;;;;;;;24.83;49.45;100488.75;4995430;28;19929;-63
2021/07/16 06:11:39;;;;;;;;;;;24.80;99.90;;;25.57;47.18;100498.19;4996150;28;19933;-64
2021/07/16 06:14:07;;;;;;;;;;;25.40;99.90;;;26.34;45.33;100492.41;4996159;28;19929;-64
2021/07/16 06:16:36;;;;;;;;;;;26.20;99.90;;;27.07;44.08;100500.66;4995474;28;19934;-64
2021/07/16 06:19:04;;;;;;;;;;;27.40;99.90;;;27.61;43.22;100499.78;4995491;28;19930;-64
2021/07/16 06:21:31;;;;;;;;;;;27.70;99.90;;;27.61;43.14;100501.78;4995891;28;19926;-64
2021/07/16 06:23:59;;;;;;;;;;;28.00;99.90;;;27.87;43.02;100506.66;4996030;28;19929;-64
2021/07/16 06:26:26;;;;;;;;;;;28.40;99.90;;;28.20;42.20;100505.91;4995084;28;19997;-65
2021/07/16 06:28:54;;;;;;;;;;;28.80;99.90;;;28.45;42.02;100513.13;4995240;28;19948;-64
2021/07/16 06:31:22;;;;;;;;;;;29.20;99.90;;;28.37;42.13;100506.06;4995476;28;20436;-65
2021/07/16 06:33:51;;;;;;;;;;;29.40;99.90;;;28.54;41.35;100503.06;4996041;28;19930;-64
2021/07/16 06:36:19;;;;;;;;;;;29.50;99.90;;;28.91;40.21;100499.31;4995004;28;20326;-64
2021/07/16 06:38:46;;;;;;;;;;;29.80;99.90;;;29.81;39.51;100502.94;4995295;28;20360;-64
2021/07/16 06:41:14;;;;;;;;;;;30.50;99.90;;;30.54;37.51;100499.06;4995225;28;19926;-64
2021/07/16 06:43:42;;;;;;;;;;;31.20;99.90;;;31.21;35.95;100501.03;4995576;28;19926;-65
2021/07/16 06:46:10;;;;;;;;;;;31.90;99.90;;;31.87;34.50;100499.69;4994903;28;19925;-64
2021/07/16 06:48:38;;;;;;;;;;;32.60;99.50;;;32.54;33.34;100499.72;4995189;28;20021;-64
2021/07/16 06:51:07;;;;;;;;;;;33.40;98.80;;;32.96;32.27;100509.56;4995259;28;20447;-64
2021/07/16 06:53:35;;;;;;;;;;;33.80;97.80;;;33.11;31.84;100502.28;4995418;28;19930;-64
2021/07/16 06:56:02;;;;;;;;;;;34.10;97.00;;;33.17;31.54;100506.09;4994702;28;20332;-65
2021/07/16 06:58:30;;;;;;;;;;;34.40;96.60;;;32.98;31.98;100505.09;4995121;28;19925;-64
2021/07/16 07:00:58;;;;;;;;;;;34.60;96.40;;;32.79;32.06;100514.53;4995169;28;20179;-63
2021/07/16 07:03:27;;;;;;;;;;;34.70;99.70;;;32.64;32.23;100521.81;4995319;28;20400;-64
2021/07/16 07:05:55;;;;;;;;;;;35.00;95.40;;;32.79;31.91;100522.94;4994540;28;19984;-64
2021/07/16 07:08:24;;;;;;;;;;;35.40;95.00;;;32.53;32.40;100526.16;4994570;28;19925;-64
2021/07/16 07:10:52;;;;;;;;;;;35.50;94.60;;;31.99;33.50;100528.91;4994757;28;19980;-64
2021/07/16 07:13:19;;;;;;;;;;;35.50;94.80;;;31.39;34.47;100532.09;4994823;28;19930;-66
2021/07/16 07:15:47;;;;;;;;;;;34.30;95.40;;;30.62;36.36;100534.72;4994298;28;20385;-65
2021/07/16 07:18:15;;;;;;;;;;;32.80;97.20;;;30.07;38.47;100534.69;4994631;28;19930;-65
2021/07/16 07:20:42;;;;;;;;;;;31.50;98.80;;;29.59;39.69;100532.41;4994562;28;19997;-64
2021/07/16 07:23:10;;;;;;;;;;;31.10;99.50;;;29.15;40.10;100539.88;4995048;28;19992;-63
2021/07/16 07:25:39;;;;;;;;;;;30.50;99.70;;;28.84;40.90;100538.41;4994168;28;19965;-63
2021/07/16 07:28:07;;;;;;;;;;;29.70;99.90;;;28.55;41.64;100543.56;4994366;28;19926;-65
2021/07/16 07:30:35;;;;;;;;;;;29.50;99.90;;;28.24;42.22;100549.53;4994417;28;19930;-64
2021/07/16 07:33:04;;;;;;;;;;;29.10;99.90;;;27.96;42.98;100556.19;4994682;28;19929;-64
2021/07/16 07:35:32;;;;;;;;;;;28.50;99.90;;;27.85;44.28;100561.06;4993984;28;20035;-65
2021/07/16 07:38:00;;;;;;;;;;;28.40;99.90;;;27.77;44.96;100557.56;4994167;28;20058;-64
2021/07/16 07:40:28;;;;;;;;;;;28.30;99.90;;;27.80;44.12;100561.50;4994136;28;19929;-64
2021/07/16 07:42:58;;;;;;;;;;;28.30;99.90;;;27.79;44.92;100562.72;4994518;28;19926;-64
2021/07/16 07:45:26;;;;;;;;;;;28.40;99.90;;;27.85;43.65;100569.38;4993832;28;19926;-64
2021/07/16 07:47:55;;;;;;;;;;;28.40;99.90;;;27.85;44.06;100561.84;4994058;28;19981;-65
2021/07/16 07:50:23;;;;;;;;;;;28.30;99.90;;;27.92;43.04;100564.56;4993941;28;19929;-64
2021/07/16 07:52:51;;;;;;;;;;;28.40;99.90;;;27.88;42.76;100563.81;4994402;28;19926;-64
2021/07/16 07:55:21;;;;;;;;;;;28.40;99.90;;;27.88;43.29;100571.34;4993781;28;19930;-64
2021/07/16 07:57:51;;;;;;;;;;;28.30;99.90;;;27.90;42.77;100568.97;4993779;28;19950;-64
2021/07/16 08:00:23;;;;;;;;;;;28.30;99.90;;;27.97;43.27;100564.09;4993803;28;20008;-64
2021/07/16 08:02:51;;;;;;;;;;;28.40;99.90;;;28.00;43.28;100574.38;4994133;28;19926;-64
2021/07/16 08:05:19;;;;;;;;;;;28.50;99.90;;;28.01;43.55;100572.41;4993765;28;19926;-64
2021/07/16 08:07:47;;;;;;;;;;;28.40;99.90;;;28.25;43.20;100581.69;4993432;28;20385;-64
2021/07/16 08:10:16;;;;;;;;;;;28.60;99.90;;;28.45;42.06;100585.44;4993595;28;19949;-64
2021/07/16 08:12:44;;;;;;;;;;;29.10;99.90;;;28.76;41.64;100575.88;4993793;28;19937;-63
2021/07/16 08:15:14;;;;;;;;;;;29.10;99.90;;;28.84;39.75;100573.78;4993356;28;19980;-64
2021/07/16 08:17:43;;;;;;;;;;;29.30;99.90;;;28.61;40.27;100571.69;4993418;28;19930;-65
2021/07/16 08:20:11;;;;;;;;;;;29.10;99.90;;;28.52;41.27;100574.97;4993456;28;19929;-64
2021/07/16 08:22:40;;;;;;;;;;;28.90;99.90;;;28.68;41.45;100579.97;4993683;28;19980;-64
2021/07/16 08:25:09;;;;;;;;;;;29.20;99.90;;;28.86;39.64;100579.72;4992591;28;19948;-63
2021/07/16 08:27:36;;;;;;;;;;;29.30;99.90;;;28.93;40.58;100583.19;4993438;28;19948;-64
2021/07/16 08:30:05;;;;;;;;;;;29.40;99.90;;;28.85;39.88;100590.06;4993205;28;19934;-63
2021/07/16 08:32:33;;;;;;;;;;;29.30;99.90;;;28.80;40.20;100592.53;4993592;28;19976;-63
2021/07/16 08:35:03;;;;;;;;;;;29.30;99.90;;;28.78;40.87;100589.38;4993113;28;19934;-63
2021/07/16 08:37:30;;;;;;;;;;;29.30;99.90;;;28.95;40.29;100589.13;4993410;28;19948;-65
2021/07/16 08:39:58;;;;;;;;;;;29.30;99.90;;;29.14;40.85;100580.09;4992855;28;20292;-64
2021/07/16 08:42:27;;;;;;;;;;;29.50;99.90;;;29.10;39.58;100582.13;4993423;28;20411;-64
2021/07/16 08:44:55;;;;;;;;;;;29.60;99.90;;;29.08;39.98;100589.34;4992990;28;19926;-64
2021/07/16 08:47:22;;;;;;;;;;;29.50;99.90;;;29.28;39.50;100585.47;4993204;28;19933;-64
2021/07/16 08:49:50;;;;;;;;;;;29.80;99.90;;;29.41;39.96;100582.06;4992987;28;19980;-64
2021/07/16 08:52:20;;;;;;;;;;;29.90;99.90;;;29.44;40.82;100581.22;4993244;28;19992;-64
2021/07/16 08:54:49;;;;;;;;;;;30.00;99.90;;;29.56;40.68;100586.19;4992801;28;20163;-64
2021/07/16 08:57:18;;;;;;;;;;;30.10;99.90;;;29.58;40.60;100589.34;4993111;28;20028;-64
2021/07/16 08:59:46;;;;;;;;;;;30.10;99.90;;;29.49;40.03;100584.31;4992637;28;19930;-64
2021/07/16 09:02:14;;;;;;;;;;;30.00;99.90;;;29.67;38.70;100581.22;4993242;28;19981;-63
2021/07/16 09:04:43;;;;;;;;;;;30.10;99.90;;;29.91;37.68;100582.81;4992516;28;19930;-64
2021/07/16 09:07:11;;;;;;;;;;;30.40;99.90;;;29.97;38.37;100578.31;4992924;28;19930;-64
2021/07/16 09:09:40;;;;;;;;;;;30.50;99.90;;;29.98;38.22;100577.09;4992767;28;19980;-64
2021/07/16 09:12:10;;;;;;;;;;;30.60;99.90;;;30.01;38.50;100581.81;4993068;28;20042;-64
2021/07/16 09:14:38;;;;;;;;;;;30.60;99.90;;;29.90;38.69;100583.22;4992768;28;19980;-64
2021/07/16 09:17:08;;;;;;;;;;;30.50;99.90;;;29.96;38.88;100578.72;4992949;28;20366;-64
2021/07/16 09:19:38;;;;;;;;;;;30.50;99.90;;;29.90;38.52;100581.22;4992354;28;19980;-65
2021/07/16 09:22:09;;;;;;;;;;;30.30;99.90;;;29.86;38.90;100583.28;4992979;28;19926;-64
2021/07/16 09:24:37;;;;;;;;;;;30.30;99.90;;;29.84;39.12;100585.72;4992751;28;20328;-65
2021/07/16 09:27:30;;;;;;;;;;;30.30;99.90;;;29.68;39.01;100580.81;4992862;28;19980;-64
2021/07/16 09:30:11;;;;;;;;;;;30.20;99.90;;;29.83;38.84;100586.94;4992324;28;20017;-64
2021/07/16 09:32:40;;;;;;;;;;;30.20;99.90;;;29.92;38.37;100583.56;4992996;28;19936;-64
2021/07/16 09:35:09;;;;;;;;;;;30.30;99.90;;;29.87;37.99;100587.66;4993670;28;19925;-64
2021/07/16 09:37:52;;;;;;;;;;;30.30;99.90;;;29.86;38.31;100582.50;4996626;28;19957;-64
2021/07/16 09:40:27;;;;;;;;;;;30.30;99.90;;;29.85;37.46;100583.72;4996426;28;19995;-64
2021/07/16 09:43:05;;;;;;;;;;;30.30;99.90;;;29.90;38.18;100586.81;4996695;28;19984;-64
2021/07/16 09:45:33;;;;;;;;;;;30.40;99.90;;;29.84;37.79;100596.88;4996000;28;20025;-64
2021/07/16 09:48:19;;;;;;;;;;;30.40;99.90;;;29.95;37.63;100594.66;4996308;28;19938;-64
2021/07/16 09:50:48;;;;;;;;;;;;;;;30.09;37.81;100600.00;4996371;28;20353;-64
2021/07/16 09:53:26;;;;;;;;;;;30.50;99.90;;;30.15;37.63;100601.06;4996600;28;20340;-65
2021/07/16 09:56:13;;;;;;;;;;;30.60;99.90;;;29.99;36.86;100603.75;4995823;28;19925;-65
2021/07/16 09:58:42;;;;;;;;;;;30.50;99.90;;;29.80;37.64;100602.47;4995973;28;19930;-64
2021/07/16 10:01:11;;;;;;;;;;;30.30;99.90;;;29.75;37.45;100604.97;4996537;28;19929;-65
2021/07/16 10:03:40;;;;;;;;;;;30.20;99.90;;;29.80;37.41;100607.25;4996262;28;19925;-64
2021/07/16 10:06:09;;;;;;;;;;;30.20;99.90;;;29.75;38.26;100607.75;4995625;28;20385;-64
2021/07/16 10:08:37;;;;;;;;;;;30.20;99.90;;;29.58;37.89;100603.25;4995578;28;19926;-64
2021/07/16 10:11:05;;;;;;;;;;;30.10;99.90;;;29.59;38.27;100613.22;4995996;28;20344;-65
2021/07/16 10:13:34;;;;;;;;;;;30.00;99.90;;;29.58;38.27;100600.47;4996196;28;19934;-64
2021/07/16 10:16:05;;;;;;;;;;;30.00;99.90;;;29.61;38.22;100608.00;4995450;28;19925;-64
2021/07/16 10:18:33;;;;;;;;;;;30.10;99.90;;;29.60;38.81;100600.84;4995618;28;19930;-65
2021/07/16 10:21:01;;;;;;;;;;;30.10;99.90;;;29.70;38.14;100609.03;4995692;28;19934;-64
2021/07/16 10:23:29;;;;;;;;;;;30.10;99.90;;;29.66;38.05;100599.97;4996019;28;19926;-65
2021/07/16 10:25:57;;;;;;;;;;;30.10;99.90;;;29.55;38.33;100604.91;4995213;28;20009;-64
2021/07/16 10:28:46;;;;;;;;;;;30.00;99.90;;;29.71;38.40;100601.44;4995557;28;19989;-64
2021/07/16 10:31:39;;;;;;;;;;;30.10;99.90;;;29.66;38.48;100604.72;4993838;28;19993;-64
2021/07/16 10:34:37;;;;;;;;;;;30.10;99.90;;;29.65;38.13;100592.00;4990548;28;20006;-65
2021/07/16 10:37:06;;;;;;;;;;;30.00;99.90;;;29.64;37.63;100590.41;4995264;28;19992;-64
2021/07/16 10:39:43;;;;;;;;;;;30.10;99.90;;;29.52;38.87;100596.59;4995104;28;19934;-63
2021/07/16 10:42:43;;;;;;;;;;;29.90;99.90;;;29.39;38.60;100588.09;4995789;28;19930;-64
2021/07/16 10:45:13;;;;;;;;;;;29.80;99.90;;;29.66;37.85;100588.00;4994765;28;20024;-65
2021/07/16 10:47:45;;;;;;;;;;;30.00;99.90;;;29.76;37.88;100589.84;4994359;28;19929;-65
2021/07/16 10:50:13;;;;;;;;;;;;;;;29.86;37.23;100580.50;4995107;28;19949;-65
2021/07/16 10:52:46;;;;;;;;;;;30.20;99.90;;;29.80;36.83;100577.41;4995645;28;19933;-64
2021/07/16 10:55:17;;;;;;;;;;;30.20;99.90;;;29.74;36.63;100579.09;4994430;28;19976;-64
2021/07/16 10:57:46;;;;;;;;;;;30.20;99.80;;;29.78;37.50;100588.19;4995212;28;20220;-64
2021/07/16 11:00:51;;;;;;;;;;;30.10;99.90;;;29.75;37.29;100577.09;4994849;28;19929;-64
2021/07/16 11:03:20;;;;;;;;;;;30.20;99.90;;;29.78;37.66;100574.25;4995156;28;20012;-66
2021/07/16 11:05:55;;;;;;;;;;;30.10;99.90;;;29.70;37.32;100575.56;4994608;28;19951;-64
2021/07/16 11:08:28;;;;;;;;;;;30.10;99.90;;;29.86;37.34;100566.56;4994621;28;19929;-64
2021/07/16 11:11:01;;;;;;;;;;;30.20;99.90;;;29.84;37.30;100574.56;4994832;28;19930;-65
2021/07/16 11:13:33;;;;;;;;;;;30.20;99.90;;;29.84;37.89;100573.78;4995262;28;20369;-64
2021/07/16 11:16:41;;;;;;;;;;;30.20;99.90;;;29.73;38.66;100563.59;4994118;28;19934;-65
2021/07/16 11:19:36;;;;;;;;;;;30.20;99.90;;;29.62;38.18;100562.19;4994375;28;20033;-64
2021/07/16 11:22:06;;;;;;;;;;;30.10;99.90;;;29.71;37.59;100566.00;4982466;28;19934;-65